sensor_id;sensor_type;location;lat;lon;timestamp;pressure;altitude;pressure_sealevel;temperature;humidity
64404;BME280;50726;54.912;-8.392;2023-02-04T00:13:01;102195.78;;;31.45;54.20
64404;BME280;50726;54.912;-8.392;2023-02-04T00:15:27;102193.94;;;30.16;56.15
64404;BME280;50726;54.912;-8.392;2023-02-04T00:17:54;102180.91;;;31.08;56.05
64404;BME280;50726;54.912;-8.392;2023-02-04T00:20:21;102210.09;;;30.93;55.52
64404;BME280;50726;54.912;-8.392;2023-02-04T00:22:53;102188.97;;;30.98;55.76
64404;BME280;50726;54.912;-8.392;2023-02-04T00:25:19;102186.47;;;30.08;55.93
64404;BME280;50726;54.912;-8.392;2023-02-04T00:27:49;102189.44;;;32.48;53.00
64404;BME280;50726;54.912;-8.392;2023-02-04T00:30:14;102188.84;;;30.67;56.83
64404;BME280;50726;54.912;-8.392;2023-02-04T00:32:40;102185.78;;;30.39;55.90
64404;BME280;50726;54.912;-8.392;2023-02-04T00:35:10;102183.06;;;30.39;56.26
64404;BME280;50726;54.912;-8.392;2023-02-04T00:37:35;102187.59;;;29.71;56.19
64404;BME280;50726;54.912;-8.392;2023-02-04T00:40:04;102168.19;;;30.00;55.90
64404;BME280;50726;54.912;-8.392;2023-02-04T00:42:31;102176.56;;;29.63;57.38
64404;BME280;50726;54.912;-8.392;2023-02-04T00:44:57;102186.81;;;30.04;57.30
64404;BME280;50726;54.912;-8.392;2023-02-04T00:47:23;102190.03;;;29.74;58.20
64404;BME280;50726;54.912;-8.392;2023-02-04T00:49:48;102200.34;;;30.48;57.63
64404;BME280;50726;54.912;-8.392;2023-02-04T00:52:16;102184.16;;;29.46;59.49
64404;BME280;50726;54.912;-8.392;2023-02-04T00:54:41;102187.59;;;29.60;57.58
64404;BME280;50726;54.912;-8.392;2023-02-04T00:57:07;102210.38;;;30.13;58.11
64404;BME280;50726;54.912;-8.392;2023-02-04T00:59:33;102183.69;;;29.05;58.63
64404;BME280;50726;54.912;-8.392;2023-02-04T01:01:58;102195.09;;;29.09;57.58
64404;BME280;50726;54.912;-8.392;2023-02-04T01:04:24;102189.53;;;29.35;58.83
64404;BME280;50726;54.912;-8.392;2023-02-04T01:06:50;102204.16;;;30.45;56.54
64404;BME280;50726;54.912;-8.392;2023-02-04T01:09:16;102184.47;;;28.83;59.60
64404;BME280;50726;54.912;-8.392;2023-02-04T01:11:41;102176.53;;;29.40;58.72
64404;BME280;50726;54.912;-8.392;2023-02-04T01:14:07;102207.38;;;29.25;58.98
64404;BME280;50726;54.912;-8.392;2023-02-04T01:16:33;102205.84;;;30.46;55.60
64404;BME280;50726;54.912;-8.392;2023-02-04T01:18:58;102210.56;;;28.21;61.35
64404;BME280;50726;54.912;-8.392;2023-02-04T01:21:24;102202.34;;;29.08;59.30
64404;BME280;50726;54.912;-8.392;2023-02-04T01:23:51;102205.69;;;30.04;56.10
64404;BME280;50726;54.912;-8.392;2023-02-04T01:26:19;102190.88;;;30.53;57.10
64404;BME280;50726;54.912;-8.392;2023-02-04T01:28:45;102203.31;;;30.77;54.89
64404;BME280;50726;54.912;-8.392;2023-02-04T01:31:12;102196.34;;;30.31;56.05
64404;BME280;50726;54.912;-8.392;2023-02-04T01:33:39;102213.56;;;30.18;56.12
64404;BME280;50726;54.912;-8.392;2023-02-04T01:36:05;102195.59;;;30.28;57.04
64404;BME280;50726;54.912;-8.392;2023-02-04T01:38:30;102202.41;;;29.77;56.71
64404;BME280;50726;54.912;-8.392;2023-02-04T01:40:56;102192.44;;;30.67;52.77
64404;BME280;50726;54.912;-8.392;2023-02-04T01:43:24;102185.09;;;29.45;57.90
64404;BME280;50726;54.912;-8.392;2023-02-04T01:45:50;102181.22;;;29.72;58.39
64404;BME280;50726;54.912;-8.392;2023-02-04T01:48:18;102184.19;;;30.36;55.41
64404;BME280;50726;54.912;-8.392;2023-02-04T01:50:50;102164.78;;;28.47;58.21
64404;BME280;50726;54.912;-8.392;2023-02-04T01:53:19;102181.22;;;29.84;56.92
64404;BME280;50726;54.912;-8.392;2023-02-04T01:55:47;102185.13;;;30.47;58.29
64404;BME280;50726;54.912;-8.392;2023-02-04T01:58:13;102166.69;;;30.31;56.42
64404;BME280;50726;54.912;-8.392;2023-02-04T02:00:40;102175.59;;;29.64;57.79
64404;BME280;50726;54.912;-8.392;2023-02-04T02:03:07;102174.00;;;31.15;57.45
64404;BME280;50726;54.912;-8.392;2023-02-04T02:08:06;102161.22;;;30.09;55.35
64404;BME280;50726;54.912;-8.392;2023-02-04T02:10:32;102155.75;;;29.77;54.88
64404;BME280;50726;54.912;-8.392;2023-02-04T02:12:59;102153.00;;;29.19;57.98
64404;BME280;50726;54.912;-8.392;2023-02-04T02:15:25;102164.66;;;30.77;55.88
64404;BME280;50726;54.912;-8.392;2023-02-04T02:17:52;102155.38;;;31.43;55.17
64404;BME280;50726;54.912;-8.392;2023-02-04T02:20:23;102161.09;;;31.50;51.98
64404;BME280;50726;54.912;-8.392;2023-02-04T02:22:59;102156.16;;;30.49;54.28
64404;BME280;50726;54.912;-8.392;2023-02-04T02:25:26;102148.03;;;30.81;53.17
64404;BME280;50726;54.912;-8.392;2023-02-04T02:27:52;102158.09;;;30.25;54.68
64404;BME280;50726;54.912;-8.392;2023-02-04T02:30:18;102139.41;;;28.74;56.82
64404;BME280;50726;54.912;-8.392;2023-02-04T02:32:46;102153.63;;;29.46;56.65
64404;BME280;50726;54.912;-8.392;2023-02-04T02:35:12;102166.69;;;30.85;52.73
64404;BME280;50726;54.912;-8.392;2023-02-04T02:37:38;102167.63;;;29.74;55.82
64404;BME280;50726;54.912;-8.392;2023-02-04T02:40:05;102162.47;;;30.92;56.03
64404;BME280;50726;54.912;-8.392;2023-02-04T02:42:31;102158.91;;;30.37;56.53
64404;BME280;50726;54.912;-8.392;2023-02-04T02:44:58;102159.16;;;29.56;56.85
64404;BME280;50726;54.912;-8.392;2023-02-04T02:47:25;102177.50;;;30.19;56.31
64404;BME280;50726;54.912;-8.392;2023-02-04T02:49:53;102174.03;;;29.03;57.57
64404;BME280;50726;54.912;-8.392;2023-02-04T02:52:20;102164.03;;;29.96;52.50
64404;BME280;50726;54.912;-8.392;2023-02-04T02:54:47;102132.47;;;29.53;55.43
64404;BME280;50726;54.912;-8.392;2023-02-04T02:57:20;102170.06;;;30.44;55.25
64404;BME280;50726;54.912;-8.392;2023-02-04T02:59:47;102178.03;;;30.46;53.03
64404;BME280;50726;54.912;-8.392;2023-02-04T03:02:15;102169.41;;;30.85;53.57
64404;BME280;50726;54.912;-8.392;2023-02-04T03:04:46;102192.66;;;30.97;55.48
64404;BME280;50726;54.912;-8.392;2023-02-04T03:07:15;102165.50;;;29.43;56.49
64404;BME280;50726;54.912;-8.392;2023-02-04T03:09:42;102168.94;;;29.91;53.75
64404;BME280;50726;54.912;-8.392;2023-02-04T03:12:10;102169.06;;;29.90;51.65
64404;BME280;50726;54.912;-8.392;2023-02-04T03:14:36;102168.06;;;30.46;50.88
64404;BME280;50726;54.912;-8.392;2023-02-04T03:17:04;102162.59;;;30.90;49.93
64404;BME280;50726;54.912;-8.392;2023-02-04T03:19:32;102171.66;;;30.68;52.16
64404;BME280;50726;54.912;-8.392;2023-02-04T03:21:58;102171.69;;;31.11;50.66
64404;BME280;50726;54.912;-8.392;2023-02-04T03:24:24;102167.31;;;31.72;49.40
64404;BME280;50726;54.912;-8.392;2023-02-04T03:26:50;102167.09;;;30.47;50.45
64404;BME280;50726;54.912;-8.392;2023-02-04T03:29:16;102170.41;;;29.95;50.01
64404;BME280;50726;54.912;-8.392;2023-02-04T03:31:42;102173.84;;;29.97;49.96
64404;BME280;50726;54.912;-8.392;2023-02-04T03:34:08;102157.44;;;30.66;52.33
64404;BME280;50726;54.912;-8.392;2023-02-04T03:36:34;102167.56;;;31.06;50.55
64404;BME280;50726;54.912;-8.392;2023-02-04T03:39:01;102161.53;;;30.27;52.10
64404;BME280;50726;54.912;-8.392;2023-02-04T03:41:28;102162.50;;;30.59;51.32
64404;BME280;50726;54.912;-8.392;2023-02-04T03:43:53;102166.22;;;30.14;52.90
64404;BME280;50726;54.912;-8.392;2023-02-04T03:46:19;102159.31;;;31.29;51.86
64404;BME280;50726;54.912;-8.392;2023-02-04T03:48:47;102177.06;;;30.68;49.63
64404;BME280;50726;54.912;-8.392;2023-02-04T03:51:13;102159.25;;;30.11;51.13
64404;BME280;50726;54.912;-8.392;2023-02-04T03:53:38;102159.84;;;30.80;50.51
64404;BME280;50726;54.912;-8.392;2023-02-04T03:56:04;102157.78;;;30.40;51.61
64404;BME280;50726;54.912;-8.392;2023-02-04T03:58:30;102167.91;;;30.26;52.32
64404;BME280;50726;54.912;-8.392;2023-02-04T04:00:55;102161.03;;;30.22;51.14
64404;BME280;50726;54.912;-8.392;2023-02-04T04:03:21;102146.25;;;31.13;49.50
64404;BME280;50726;54.912;-8.392;2023-02-04T04:05:46;102155.91;;;30.19;51.77
64404;BME280;50726;54.912;-8.392;2023-02-04T04:08:12;102145.47;;;28.89;54.58
64404;BME280;50726;54.912;-8.392;2023-02-04T04:10:38;102146.03;;;30.41;52.07
64404;BME280;50726;54.912;-8.392;2023-02-04T04:13:04;102148.38;;;29.56;52.05
64404;BME280;50726;54.912;-8.392;2023-02-04T04:15:30;102143.00;;;29.67;52.16
64404;BME280;50726;54.912;-8.392;2023-02-04T04:17:56;102138.28;;;29.92;51.11
64404;BME280;50726;54.912;-8.392;2023-02-04T04:20:23;102148.00;;;29.72;53.64
64404;BME280;50726;54.912;-8.392;2023-02-04T04:22:50;102151.63;;;31.66;50.22
64404;BME280;50726;54.912;-8.392;2023-02-04T04:25:16;102138.31;;;30.58;51.69
64404;BME280;50726;54.912;-8.392;2023-02-04T04:27:42;102139.28;;;29.80;53.22
64404;BME280;50726;54.912;-8.392;2023-02-04T04:30:08;102144.09;;;29.76;52.14
64404;BME280;50726;54.912;-8.392;2023-02-04T04:32:34;102133.66;;;30.60;52.62
64404;BME280;50726;54.912;-8.392;2023-02-04T04:34:59;102144.63;;;28.88;55.06
64404;BME280;50726;54.912;-8.392;2023-02-04T04:37:25;102132.44;;;29.18;53.80
64404;BME280;50726;54.912;-8.392;2023-02-04T04:39:52;102136.72;;;30.34;54.26
64404;BME280;50726;54.912;-8.392;2023-02-04T04:42:17;102132.56;;;29.85;52.61
64404;BME280;50726;54.912;-8.392;2023-02-04T04:44:43;102142.84;;;29.80;51.11
64404;BME280;50726;54.912;-8.392;2023-02-04T04:47:09;102136.47;;;30.91;49.87
64404;BME280;50726;54.912;-8.392;2023-02-04T04:49:35;102129.94;;;30.72;48.14
64404;BME280;50726;54.912;-8.392;2023-02-04T04:52:01;102122.16;;;29.69;47.50
64404;BME280;50726;54.912;-8.392;2023-02-04T04:54:26;102120.84;;;28.82;52.50
64404;BME280;50726;54.912;-8.392;2023-02-04T04:56:52;102131.47;;;29.42;49.01
64404;BME280;50726;54.912;-8.392;2023-02-04T04:59:18;102128.38;;;28.65;50.92
64404;BME280;50726;54.912;-8.392;2023-02-04T05:01:43;102128.06;;;30.19;47.75
64404;BME280;50726;54.912;-8.392;2023-02-04T05:04:09;102130.34;;;28.63;51.43
64404;BME280;50726;54.912;-8.392;2023-02-04T05:06:36;102124.41;;;28.47;50.99
64404;BME280;50726;54.912;-8.392;2023-02-04T05:09:03;102127.75;;;28.62;50.88
64404;BME280;50726;54.912;-8.392;2023-02-04T05:11:29;102125.56;;;29.37;49.87
64404;BME280;50726;54.912;-8.392;2023-02-04T05:13:55;102134.56;;;28.06;50.79
64404;BME280;50726;54.912;-8.392;2023-02-04T05:16:20;102122.78;;;28.80;51.36
64404;BME280;50726;54.912;-8.392;2023-02-04T05:18:46;102132.94;;;29.46;50.16
64404;BME280;50726;54.912;-8.392;2023-02-04T05:21:12;102123.38;;;30.32;48.68
64404;BME280;50726;54.912;-8.392;2023-02-04T05:23:37;102121.69;;;28.83;50.17
64404;BME280;50726;54.912;-8.392;2023-02-04T05:26:03;102130.94;;;29.14;50.05
64404;BME280;50726;54.912;-8.392;2023-02-04T05:28:29;102123.53;;;29.52;49.38
64404;BME280;50726;54.912;-8.392;2023-02-04T05:30:54;102118.69;;;29.90;48.97
64404;BME280;50726;54.912;-8.392;2023-02-04T05:33:20;102109.63;;;29.80;49.28
64404;BME280;50726;54.912;-8.392;2023-02-04T05:35:46;102111.03;;;28.70;49.72
64404;BME280;50726;54.912;-8.392;2023-02-04T05:38:11;102117.00;;;30.54;48.48
64404;BME280;50726;54.912;-8.392;2023-02-04T05:40:37;102118.19;;;31.04;47.70
64404;BME280;50726;54.912;-8.392;2023-02-04T05:43:02;102112.38;;;30.45;46.73
64404;BME280;50726;54.912;-8.392;2023-02-04T05:45:30;102115.56;;;29.51;49.21
64404;BME280;50726;54.912;-8.392;2023-02-04T05:47:57;102113.03;;;31.64;46.72
64404;BME280;50726;54.912;-8.392;2023-02-04T05:50:23;102126.91;;;29.88;48.62
64404;BME280;50726;54.912;-8.392;2023-02-04T05:52:50;102108.38;;;29.95;49.42
64404;BME280;50726;54.912;-8.392;2023-02-04T05:55:16;102120.06;;;29.39;49.24
64404;BME280;50726;54.912;-8.392;2023-02-04T05:57:41;102119.81;;;29.19;50.17
64404;BME280;50726;54.912;-8.392;2023-02-04T06:00:08;102122.16;;;29.24;50.22
64404;BME280;50726;54.912;-8.392;2023-02-04T06:02:34;102114.56;;;29.40;50.50
64404;BME280;50726;54.912;-8.392;2023-02-04T06:05:00;102126.63;;;31.11;47.74
64404;BME280;50726;54.912;-8.392;2023-02-04T06:07:26;102126.25;;;30.94;47.93
64404;BME280;50726;54.912;-8.392;2023-02-04T06:09:51;102131.06;;;30.91;47.42
64404;BME280;50726;54.912;-8.392;2023-02-04T06:12:17;102133.69;;;29.71;50.27
64404;BME280;50726;54.912;-8.392;2023-02-04T06:14:43;102135.78;;;30.23;49.91
64404;BME280;50726;54.912;-8.392;2023-02-04T06:17:12;102133.06;;;31.51;48.29
64404;BME280;50726;54.912;-8.392;2023-02-04T06:19:38;102125.25;;;30.95;48.05
64404;BME280;50726;54.912;-8.392;2023-02-04T06:22:03;102139.97;;;30.16;49.19
64404;BME280;50726;54.912;-8.392;2023-02-04T06:24:29;102135.94;;;30.97;47.38
64404;BME280;50726;54.912;-8.392;2023-02-04T06:26:54;102135.81;;;30.99;49.07
64404;BME280;50726;54.912;-8.392;2023-02-04T06:29:20;102142.28;;;30.86;48.37
64404;BME280;50726;54.912;-8.392;2023-02-04T06:31:46;102139.25;;;31.32;48.46
64404;BME280;50726;54.912;-8.392;2023-02-04T06:34:14;102119.78;;;31.79;46.87
64404;BME280;50726;54.912;-8.392;2023-02-04T06:36:40;102123.00;;;29.47;51.42
64404;BME280;50726;54.912;-8.392;2023-02-04T06:39:06;102129.72;;;29.87;50.68
64404;BME280;50726;54.912;-8.392;2023-02-04T06:41:31;102140.16;;;31.83;47.50
64404;BME280;50726;54.912;-8.392;2023-02-04T06:43:57;102137.41;;;30.03;49.97
64404;BME280;50726;54.912;-8.392;2023-02-04T06:46:23;102127.81;;;29.55;52.06
64404;BME280;50726;54.912;-8.392;2023-02-04T06:48:48;102124.38;;;29.64;53.51
64404;BME280;50726;54.912;-8.392;2023-02-04T06:51:14;102142.38;;;30.31;52.61
64404;BME280;50726;54.912;-8.392;2023-02-04T06:53:39;102135.41;;;29.61;51.57
64404;BME280;50726;54.912;-8.392;2023-02-04T06:56:09;102098.22;;;30.32;51.69
64404;BME280;50726;54.912;-8.392;2023-02-04T06:58:36;102119.56;;;29.79;52.97
64404;BME280;50726;54.912;-8.392;2023-02-04T07:01:02;102124.06;;;28.87;52.74
64404;BME280;50726;54.912;-8.392;2023-02-04T07:03:29;102102.53;;;29.33;54.32
64404;BME280;50726;54.912;-8.392;2023-02-04T07:05:54;102104.38;;;28.62;53.24
64404;BME280;50726;54.912;-8.392;2023-02-04T07:08:20;102104.78;;;29.51;54.46
64404;BME280;50726;54.912;-8.392;2023-02-04T07:10:46;102118.47;;;29.36;53.06
64404;BME280;50726;54.912;-8.392;2023-02-04T07:13:12;102104.25;;;29.34;54.32
64404;BME280;50726;54.912;-8.392;2023-02-04T07:15:38;102090.84;;;28.39;54.54
64404;BME280;50726;54.912;-8.392;2023-02-04T07:18:04;102120.56;;;29.32;53.47
64404;BME280;50726;54.912;-8.392;2023-02-04T07:20:29;102119.69;;;29.32;53.75
64404;BME280;50726;54.912;-8.392;2023-02-04T07:22:55;102117.75;;;29.68;53.95
64404;BME280;50726;54.912;-8.392;2023-02-04T07:25:21;102114.34;;;29.55;54.67
64404;BME280;50726;54.912;-8.392;2023-02-04T07:27:46;102104.16;;;29.58;53.04
64404;BME280;50726;54.912;-8.392;2023-02-04T07:30:12;102122.28;;;29.68;54.10
64404;BME280;50726;54.912;-8.392;2023-02-04T07:32:38;102114.25;;;31.08;51.90
64404;BME280;50726;54.912;-8.392;2023-02-04T07:35:04;102127.06;;;30.20;52.28
64404;BME280;50726;54.912;-8.392;2023-02-04T07:37:30;102124.50;;;31.15;52.33
64404;BME280;50726;54.912;-8.392;2023-02-04T07:39:55;102126.94;;;29.66;51.92
64404;BME280;50726;54.912;-8.392;2023-02-04T07:42:22;102125.81;;;31.20;53.11
64404;BME280;50726;54.912;-8.392;2023-02-04T07:44:47;102118.81;;;29.43;52.96
64404;BME280;50726;54.912;-8.392;2023-02-04T07:47:13;102117.59;;;31.53;51.03
64404;BME280;50726;54.912;-8.392;2023-02-04T07:49:39;102136.56;;;31.11;49.52
64404;BME280;50726;54.912;-8.392;2023-02-04T07:52:05;102084.44;;;29.01;54.18
64404;BME280;50726;54.912;-8.392;2023-02-04T07:54:34;102106.22;;;30.54;53.66
64404;BME280;50726;54.912;-8.392;2023-02-04T07:57:00;102103.19;;;28.78;52.80
64404;BME280;50726;54.912;-8.392;2023-02-04T07:59:25;102110.00;;;28.59;54.94
64404;BME280;50726;54.912;-8.392;2023-02-04T08:01:51;102099.84;;;29.10;54.15
64404;BME280;50726;54.912;-8.392;2023-02-04T08:04:16;102112.34;;;29.45;54.25
64404;BME280;50726;54.912;-8.392;2023-02-04T08:06:42;102093.50;;;28.28;55.75
64404;BME280;50726;54.912;-8.392;2023-02-04T08:09:08;102116.47;;;29.95;52.23
64404;BME280;50726;54.912;-8.392;2023-02-04T08:11:33;102106.75;;;28.78;54.03
64404;BME280;50726;54.912;-8.392;2023-02-04T08:13:59;102112.63;;;28.84;54.09
64404;BME280;50726;54.912;-8.392;2023-02-04T08:16:24;102113.41;;;30.33;53.24
64404;BME280;50726;54.912;-8.392;2023-02-04T08:18:50;102121.81;;;28.81;53.40
64404;BME280;50726;54.912;-8.392;2023-02-04T08:21:16;102117.88;;;29.21;54.64
64404;BME280;50726;54.912;-8.392;2023-02-04T08:23:41;102126.19;;;29.75;52.98
64404;BME280;50726;54.912;-8.392;2023-02-04T08:26:09;102123.94;;;30.03;54.42
64404;BME280;50726;54.912;-8.392;2023-02-04T08:28:36;102125.44;;;29.04;54.82
64404;BME280;50726;54.912;-8.392;2023-02-04T08:31:06;102116.00;;;29.21;55.46
64404;BME280;50726;54.912;-8.392;2023-02-04T08:33:31;102114.53;;;28.94;54.64
64404;BME280;50726;54.912;-8.392;2023-02-04T08:35:57;102120.47;;;30.12;53.43
64404;BME280;50726;54.912;-8.392;2023-02-04T08:38:23;102134.91;;;28.86;55.70
64404;BME280;50726;54.912;-8.392;2023-02-04T08:40:48;102123.75;;;28.79;55.22
64404;BME280;50726;54.912;-8.392;2023-02-04T08:43:18;102120.81;;;30.31;53.04
64404;BME280;50726;54.912;-8.392;2023-02-04T08:45:47;102129.47;;;29.90;53.09
64404;BME280;50726;54.912;-8.392;2023-02-04T08:48:15;102151.78;;;30.36;52.21
64404;BME280;50726;54.912;-8.392;2023-02-04T08:50:41;102137.38;;;29.70;53.15
64404;BME280;50726;54.912;-8.392;2023-02-04T08:53:07;102127.78;;;29.43;54.36
64404;BME280;50726;54.912;-8.392;2023-02-04T08:55:32;102142.78;;;30.26;51.02
64404;BME280;50726;54.912;-8.392;2023-02-04T08:57:58;102139.66;;;30.42;52.39
64404;BME280;50726;54.912;-8.392;2023-02-04T09:00:26;102150.19;;;29.90;52.88
64404;BME280;50726;54.912;-8.392;2023-02-04T09:02:51;102133.16;;;30.66;51.38
64404;BME280;50726;54.912;-8.392;2023-02-04T09:05:17;102146.66;;;29.78;52.37
64404;BME280;50726;54.912;-8.392;2023-02-04T09:07:43;102163.19;;;30.40;52.73
64404;BME280;50726;54.912;-8.392;2023-02-04T09:10:09;102139.16;;;30.37;51.67
64404;BME280;50726;54.912;-8.392;2023-02-04T09:12:35;102136.56;;;29.91;52.33
64404;BME280;50726;54.912;-8.392;2023-02-04T09:15:01;102138.72;;;31.17;51.41
64404;BME280;50726;54.912;-8.392;2023-02-04T09:17:27;102175.13;;;30.70;49.94
64404;BME280;50726;54.912;-8.392;2023-02-04T09:19:52;102143.50;;;30.28;50.43
64404;BME280;50726;54.912;-8.392;2023-02-04T09:22:18;102112.34;;;29.68;50.61
64404;BME280;50726;54.912;-8.392;2023-02-04T09:24:46;102139.22;;;31.01;50.33
64404;BME280;50726;54.912;-8.392;2023-02-04T09:27:11;102137.38;;;29.59;50.68
64404;BME280;50726;54.912;-8.392;2023-02-04T09:29:38;102127.38;;;32.84;47.23
64404;BME280;50726;54.912;-8.392;2023-02-04T09:32:04;102140.41;;;31.80;48.91
64404;BME280;50726;54.912;-8.392;2023-02-04T09:34:31;102144.44;;;30.71;48.26
64404;BME280;50726;54.912;-8.392;2023-02-04T09:36:56;102152.66;;;31.12;49.69
64404;BME280;50726;54.912;-8.392;2023-02-04T09:39:30;102142.81;;;32.44;46.26
64404;BME280;50726;54.912;-8.392;2023-02-04T09:41:57;102156.38;;;31.21;47.81
64404;BME280;50726;54.912;-8.392;2023-02-04T09:44:26;102134.50;;;29.83;52.60
64404;BME280;50726;54.912;-8.392;2023-02-04T09:46:55;102163.66;;;30.78;52.45
64404;BME280;50726;54.912;-8.392;2023-02-04T09:49:24;102156.34;;;30.36;52.80
64404;BME280;50726;54.912;-8.392;2023-02-04T09:51:51;102128.50;;;29.80;52.52
64404;BME280;50726;54.912;-8.392;2023-02-04T09:54:20;102167.19;;;30.24;52.30
64404;BME280;50726;54.912;-8.392;2023-02-04T09:56:46;102166.75;;;29.51;54.24
64404;BME280;50726;54.912;-8.392;2023-02-04T09:59:26;102151.88;;;30.46;51.79
64404;BME280;50726;54.912;-8.392;2023-02-04T10:02:01;102144.47;;;29.48;54.78
64404;BME280;50726;54.912;-8.392;2023-02-04T10:04:29;102145.25;;;28.92;53.95
64404;BME280;50726;54.912;-8.392;2023-02-04T10:06:55;102154.13;;;29.28;53.70
64404;BME280;50726;54.912;-8.392;2023-02-04T10:09:25;102160.88;;;29.68;52.89
64404;BME280;50726;54.912;-8.392;2023-02-04T10:11:51;102145.81;;;29.31;55.13
64404;BME280;50726;54.912;-8.392;2023-02-04T10:14:21;102165.22;;;30.04;55.68
64404;BME280;50726;54.912;-8.392;2023-02-04T10:16:53;102163.56;;;28.13;58.45
64404;BME280;50726;54.912;-8.392;2023-02-04T10:19:22;102153.78;;;29.67;58.20
64404;BME280;50726;54.912;-8.392;2023-02-04T10:21:48;102150.44;;;29.29;55.58
64404;BME280;50726;54.912;-8.392;2023-02-04T10:24:25;102153.72;;;30.01;55.56
64404;BME280;50726;54.912;-8.392;2023-02-04T10:26:53;102165.75;;;29.74;56.49
64404;BME280;50726;54.912;-8.392;2023-02-04T10:29:21;102155.84;;;28.82;58.11
64404;BME280;50726;54.912;-8.392;2023-02-04T10:31:50;102135.63;;;28.03;57.98
64404;BME280;50726;54.912;-8.392;2023-02-04T10:34:36;102172.09;;;30.08;55.04
64404;BME280;50726;54.912;-8.392;2023-02-04T10:37:19;102159.28;;;28.60;57.90
64404;BME280;50726;54.912;-8.392;2023-02-04T10:39:45;102156.84;;;28.57;57.51
64404;BME280;50726;54.912;-8.392;2023-02-04T10:42:31;102146.38;;;29.01;56.07
64404;BME280;50726;54.912;-8.392;2023-02-04T10:44:58;102173.81;;;30.20;56.53
64404;BME280;50726;54.912;-8.392;2023-02-04T10:47:25;102188.00;;;29.08;57.39
64404;BME280;50726;54.912;-8.392;2023-02-04T10:49:57;102182.41;;;29.23;57.14
64404;BME280;50726;54.912;-8.392;2023-02-04T10:52:29;102206.41;;;30.28;56.40
64404;BME280;50726;54.912;-8.392;2023-02-04T10:54:58;102218.13;;;30.83;54.17
64404;BME280;50726;54.912;-8.392;2023-02-04T10:57:28;102245.25;;;28.87;56.93
64404;BME280;50726;54.912;-8.392;2023-02-04T10:59:56;102275.56;;;31.18;51.24
64404;BME280;50726;54.912;-8.392;2023-02-04T11:04:58;102331.13;;;27.49;56.92
64404;BME280;50726;54.912;-8.392;2023-02-04T11:07:23;102307.34;;;27.96;55.72
64404;BME280;50726;54.912;-8.392;2023-02-04T11:09:49;102322.19;;;27.36;56.74
64404;BME280;50726;54.912;-8.392;2023-02-04T11:13:01;102371.34;;;25.16;60.64
64404;BME280;50726;54.912;-8.392;2023-02-04T11:15:47;102348.53;;;26.46;58.19
64404;BME280;50726;54.912;-8.392;2023-02-04T11:20:47;102349.84;;;26.53;58.73
64404;BME280;50726;54.912;-8.392;2023-02-04T11:26:06;102368.66;;;27.51;57.27
64404;BME280;50726;54.912;-8.392;2023-02-04T11:33:47;102390.38;;;26.34;60.13
64404;BME280;50726;54.912;-8.392;2023-02-04T11:36:14;102411.97;;;25.71;60.07
64404;BME280;50726;54.912;-8.392;2023-02-04T11:38:55;102425.66;;;25.18;61.57
64404;BME280;50726;54.912;-8.392;2023-02-04T11:41:29;102414.03;;;25.36;63.57
64404;BME280;50726;54.912;-8.392;2023-02-04T11:43:56;102421.50;;;25.61;60.86
64404;BME280;50726;54.912;-8.392;2023-02-04T11:46:25;102439.53;;;26.64;59.83
64404;BME280;50726;54.912;-8.392;2023-02-04T11:48:55;102452.84;;;27.37;56.65
64404;BME280;50726;54.912;-8.392;2023-02-04T11:51:32;102475.00;;;26.69;55.95
64404;BME280;50726;54.912;-8.392;2023-02-04T11:53:58;102477.09;;;26.35;57.24
64404;BME280;50726;54.912;-8.392;2023-02-04T11:56:28;102476.31;;;26.47;56.85
64404;BME280;50726;54.912;-8.392;2023-02-04T11:58:57;102500.84;;;23.93;62.79
64404;BME280;50726;54.912;-8.392;2023-02-04T12:01:29;102493.94;;;26.37;58.24
64404;BME280;50726;54.912;-8.392;2023-02-04T12:03:56;102498.75;;;27.33;55.27
64404;BME280;50726;54.912;-8.392;2023-02-04T12:06:24;102501.19;;;27.51;55.91
64404;BME280;50726;54.912;-8.392;2023-02-04T12:08:50;102514.97;;;26.74;54.59
64404;BME280;50726;54.912;-8.392;2023-02-04T12:11:36;102504.53;;;26.69;54.90
64404;BME280;50726;54.912;-8.392;2023-02-04T12:14:08;102508.34;;;26.79;55.33
64404;BME280;50726;54.912;-8.392;2023-02-04T12:17:00;102546.66;;;27.96;53.87
64404;BME280;50726;54.912;-8.392;2023-02-04T12:19:26;102523.19;;;27.98;52.76
64404;BME280;50726;54.912;-8.392;2023-02-04T12:21:52;102532.34;;;27.12;52.40
64404;BME280;50726;54.912;-8.392;2023-02-04T12:24:19;102555.91;;;25.69;54.21
64404;BME280;50726;54.912;-8.392;2023-02-04T12:26:44;102538.25;;;27.46;51.51
64404;BME280;50726;54.912;-8.392;2023-02-04T12:29:11;102543.88;;;26.99;53.66
64404;BME280;50726;54.912;-8.392;2023-02-04T12:31:37;102544.97;;;26.66;52.60
64404;BME280;50726;54.912;-8.392;2023-02-04T12:34:04;102554.44;;;26.57;52.82
64404;BME280;50726;54.912;-8.392;2023-02-04T12:36:29;102571.56;;;26.54;53.12
64404;BME280;50726;54.912;-8.392;2023-02-04T12:38:56;102561.63;;;26.57;53.63
64404;BME280;50726;54.912;-8.392;2023-02-04T12:41:23;102563.66;;;26.67;54.25
64404;BME280;50726;54.912;-8.392;2023-02-04T12:43:49;102576.63;;;26.75;52.69
64404;BME280;50726;54.912;-8.392;2023-02-04T12:46:15;102583.25;;;27.28;52.42
64404;BME280;50726;54.912;-8.392;2023-02-04T12:48:41;102583.69;;;26.76;52.98
64404;BME280;50726;54.912;-8.392;2023-02-04T12:51:08;102591.22;;;26.24;53.77
64404;BME280;50726;54.912;-8.392;2023-02-04T12:53:34;102596.78;;;26.52;53.37
64404;BME280;50726;54.912;-8.392;2023-02-04T12:55:59;102613.69;;;26.99;53.07
64404;BME280;50726;54.912;-8.392;2023-02-04T12:58:25;102608.88;;;27.19;52.23
64404;BME280;50726;54.912;-8.392;2023-02-04T13:00:52;102609.28;;;27.27;53.67
64404;BME280;50726;54.912;-8.392;2023-02-04T13:03:17;102625.69;;;27.66;52.35
64404;BME280;50726;54.912;-8.392;2023-02-04T13:05:43;102627.34;;;27.96;51.86
64404;BME280;50726;54.912;-8.392;2023-02-04T13:08:09;102622.31;;;28.32;51.16